Terminal Aerodrome Forecast
Issued by NWS

Home | Current Version | Previous Version | Text Only | Print | Product List | Glossary On
Versions: 1 2 3 4 5 6 7 8 9 10 11 12 13 14
539
FTUS42 KTBW 210256 AAA
TAFPIE
TAF AMD
KPIE 210256Z 2103/2124 05013KT P6SM SCT023 OVC035
      TEMPO 2103/2106 BKN023
     FM210600 06010KT P6SM SCT015 BKN025
     FM211300 11010KT P6SM SCT025
     FM211800 17008KT P6SM SCT045 SCT100=

USA.gov is the U.S. government's official web portal to all federal, state and local government web resources and services.